METAR Data
IDs: Format: Raw Decoded Include TAF

Data at: 1350 UTC 14 Dec 2019

PAIL 141253Z AUTO 00000KT 10SM OVC060 01/M02 A2947 RMK AO2 SLP982 T00111022 TSNO
PAIL 141153Z AUTO 01005KT 10SM OVC065 01/M02 A2948 RMK AO2 SLP985 70012 T00111022 10022 20006 50004 TSNO
PAIL 141053Z AUTO 35006KT 10SM OVC070 01/M02 A2948 RMK AO2 SLP986 T00061022 TSNO
PAIL 140953Z AUTO 35006KT 10SM OVC065 01/M02 A2948 RMK AO2 SLP986 T00111017 TSNO
PAIL 140853Z AUTO 36008KT 10SM BKN065 02/M01 A2947 RMK AO2 SLP981 T00171011 400221011 55000 TSNO
PAIL 140753Z AUTO 31003KT 10SM BKN065 02/M01 A2947 RMK AO2 SLP982 T00171006 TSNO
PAIL 140653Z AUTO 02008KT 10SM SCT033 BKN065 BKN110 02/00 A2946 RMK AO2 SLP979 T00220000 TSNO
PAIL 140553Z 35007KT 10SM SCT033 OVC070 02/01 A2947 RMK AO2 SLP981 T00220006 10022 20011 53001
PAIL 140453Z 02007KT 10SM SCT033 BKN070 BKN120 02/01 A2947 RMK AO2 SLP981 T00220006
PAIL 140353Z 36005KT 10SM SCT033 BKN070 BKN120 02/01 A2947 RMK AO2 SLP981 T00220006
PAIL 140253Z 35005KT 10SM SCT033 SCT070 BKN110 02/01 A2947 RMK AO2 SLP981 T00170006 51008
PAIL 140153Z 36005KT 10SM SCT033 BKN060 OVC120 02/01 A2946 RMK AO2 SLP977 T00170011
PAIL 140053Z 35006KT 10SM SCT033 BKN090 BKN100 02/01 A2945 RMK AO2 SLP977 T00170011
PAIL 132353Z 01005KT 10SM BKN033 BKN055 BKN080 02/01 A2944 RMK AO2 SLP973 60012 I6000 T00170011 10022 21006 51008
PAIL 132253Z 36004KT 10SM SCT024 BKN033 OVC050 02/02 A2943 RMK AO2 RAE18 SLP968 P0000 T00220017
PAIL 132229Z 35004KT 10SM SCT024 BKN031 OVC036 02/01 A2943 RMK AO2 RAE18 P0000 T00170011
PAIL 132153Z 32004KT 10SM -RA SCT024 BKN029 OVC033 02/01 A2943 RMK AO2 SLP969 P0001 T00170011
PAIL 132143Z 32005KT 10SM -RA FEW024 OVC029 01/01 A2943 RMK AO2 P0001 T00110006
PAIL 132133Z 34005KT 10SM -RA OVC030 01/01 A2943 RMK AO2 P0001 T00110006
PAIL 132053Z 34004KT 6SM -RA BR FEW014 OVC028 01/01 A2942 RMK AO2 SLP964 P0010 60011 I3000 T00110006 51034
PAIL 132006Z 36004KT 5SM -RA BR OVC026 01/01 A2939 RMK AO2 P0003 T00110006
PAIL 131953Z 01005KT 7SM RA OVC036 01/M01 A2939 RMK AO2 UPB1859E36RAB25E33B50 SLP954 P0001 T00061006
PAIL 131853Z 01005KT 10SM FEW030 SCT075 SCT110 M01/M02 A2935 RMK AO2 SLP942 T10061022
PAIL 131753Z 36005KT 10SM FEW060 SCT110 M01/M02 A2932 RMK AO2 SLP930 T10061022 10011 21011 53024
PAIL 131553Z 01006KT 10SM CLR M01/M03 A2927 RMK AO2 SLP913 T10061028
PAIL 131453Z AUTO 36008KT 10SM CLR 00/M02 A2925 RMK AO2 SLP906 T00001022 51010 TSNO
PAIL 131353Z AUTO 36006KT 10SM CLR 00/M02 A2925 RMK AO2 SLP906 T00001022 TSNO
PAIL 131253Z AUTO 01005KT 10SM OVC110 01/M02 A2923 RMK AO2 SLP902 T00111017 TSNO
PAIL 131153Z AUTO 01005KT 10SM OVC090 01/M01 A2922 RMK AO2 SLP895 T00111011 10039 20006 52014 TSNO
PAIL 131053Z AUTO 33005KT 10SM OVC085 02/M01 A2920 RMK AO2 SLP889 T00221011 TSNO
PAIL 130953Z AUTO 33006KT 10SM OVC075 02/M01 A2920 RMK AO2 SLP889 T00171011 TSNO
PAIL 130853Z AUTO 36004KT 10SM BKN075 01/M02 A2918 RMK AO2 SLP882 T00111017 400720011 53015 TSNO
PAIL 130753Z AUTO 03003KT 10SM BKN080 02/M02 A2916 RMK AO2 SLP876 T00221017 TSNO
PAIL 130653Z AUTO 02007KT 10SM BKN075 BKN090 02/M01 A2915 RMK AO2 SLP872 T00171011 TSNO
PAIL 130553Z 01009KT 10SM SCT075 BKN090 04/M01 A2913 RMK AO2 SLP866 T00391006 10072 20039 53000
PAIL 130453Z 01007KT 10SM SCT075 BKN090 04/00 A2912 RMK AO2 SLP864 T00440000
PAIL 130353Z 01008KT 10SM SCT075 BKN090 05/01 A2914 RMK AO2 SLP868 T00500006
PAIL 130253Z 36011KT 10SM SCT075 BKN090 BKN110 06/01 A2913 RMK AO2 SLP866 T00560006 56003
PAIL 130153Z 36008KT 10SM SCT075 BKN090 BKN110 06/01 A2913 RMK AO2 SLP866 T00610011